Time;durP1;ratioP1;P1;durP2;ratioP2;P2;SDS_P1;SDS_P2;PMS_P1;PMS_P2;Temp;Humidity;BMP_temperature;BMP_pressure;BME280_temperature;BME280_humidity;BME280_pressure;Samples;Min_cycle;Max_cycle;Signal;HPM_P1;HPM_P2
2023/03/11 00:00:27;;;;;;;0.80;0.40;;;3.00;99.90;;;;;;4964795;28;20446;-76
2023/03/11 00:02:55;;;;;;;1.35;0.40;;;3.00;99.90;;;;;;4965818;28;20425;-77
2023/03/11 00:05:25;;;;;;;1.20;0.63;;;2.90;99.90;;;;;;4964789;28;20123;-75
2023/03/11 00:07:51;;;;;;;1.00;0.50;;;2.90;99.90;;;;;;4963599;28;20030;-76
2023/03/11 00:10:21;;;;;;;0.52;0.30;;;2.90;99.90;;;;;;4965230;28;20031;-76
2023/03/11 00:12:47;;;;;;;0.43;0.38;;;2.90;99.90;;;;;;4968083;28;20396;-76
2023/03/11 00:15:13;;;;;;;0.80;0.40;;;2.90;99.90;;;;;;4967530;28;20034;-75
2023/03/11 00:17:39;;;;;;;1.10;0.40;;;2.90;99.90;;;;;;4962559;28;20033;-76
2023/03/11 00:20:06;;;;;;;0.90;0.40;;;2.80;99.90;;;;;;4963113;28;20035;-75
2023/03/11 00:22:32;;;;;;;0.80;0.60;;;2.90;99.90;;;;;;4963524;28;20034;-76
2023/03/11 00:24:58;;;;;;;0.95;0.60;;;2.90;99.90;;;;;;4962695;28;20376;-76
2023/03/11 00:27:24;;;;;;;0.93;0.60;;;2.90;99.90;;;;;;4965446;28;20077;-76
2023/03/11 00:29:49;;;;;;;2.10;0.68;;;2.90;99.90;;;;;;4962720;28;20031;-77
2023/03/11 00:32:15;;;;;;;1.85;0.63;;;2.80;99.90;;;;;;4966542;28;20034;-75
2023/03/11 00:34:41;;;;;;;0.77;0.47;;;2.80;99.90;;;;;;4960844;28;20030;-76
2023/03/11 00:37:07;;;;;;;1.88;0.60;;;2.80;99.90;;;;;;4964097;28;20050;-76
2023/03/11 00:39:33;;;;;;;2.13;1.23;;;2.80;99.90;;;;;;4964443;28;20058;-76
2023/03/11 00:41:59;;;;;;;1.27;0.73;;;2.80;99.90;;;;;;4968020;28;20065;-76
2023/03/11 00:44:24;;;;;;;1.80;0.80;;;2.80;99.90;;;;;;4964039;28;20042;-76
2023/03/11 00:46:50;;;;;;;1.23;0.45;;;2.80;99.90;;;;;;4964178;28;20039;-76
2023/03/11 00:49:16;;;;;;;2.25;0.40;;;2.90;99.90;;;;;;4958069;28;20034;-76
2023/03/11 00:51:41;;;;;;;1.00;0.60;;;2.80;99.90;;;;;;4965488;28;20648;-76
2023/03/11 00:54:07;;;;;;;0.65;0.57;;;2.90;99.90;;;;;;4963510;28;20489;-76
2023/03/11 00:56:32;;;;;;;0.82;0.47;;;2.80;99.90;;;;;;4969106;28;20123;-76
2023/03/11 00:58:58;;;;;;;1.88;0.60;;;2.90;99.90;;;;;;4964584;28;20106;-76
2023/03/11 01:01:23;;;;;;;1.52;0.60;;;2.90;99.90;;;;;;4962994;28;20034;-75
2023/03/11 01:03:49;;;;;;;0.65;0.50;;;2.90;99.90;;;;;;4965050;28;20446;-75
2023/03/11 01:06:15;;;;;;;1.10;0.70;;;2.90;99.90;;;;;;4963173;28;20043;-76
2023/03/11 01:08:40;;;;;;;1.92;0.68;;;2.90;99.90;;;;;;4963237;28;20031;-75
2023/03/11 01:11:07;;;;;;;2.25;0.90;;;2.90;99.90;;;;;;4963245;28;20072;-75
2023/03/11 01:13:33;;;;;;;2.35;0.47;;;3.00;99.90;;;;;;4966783;28;20027;-75
2023/03/11 01:15:59;;;;;;;1.80;1.00;;;3.00;99.90;;;;;;4962937;28;20024;-76
2023/03/11 01:18:26;;;;;;;2.50;0.63;;;3.00;99.90;;;;;;4959641;28;20113;-76
2023/03/11 01:20:52;;;;;;;3.10;0.85;;;3.00;99.90;;;;;;4964530;28;20031;-76
2023/03/11 01:23:18;;;;;;;4.20;1.10;;;3.00;99.90;;;;;;4963146;28;20517;-76
2023/03/11 01:25:44;;;;;;;1.05;0.65;;;3.00;99.90;;;;;;4962680;28;20088;-76
2023/03/11 01:28:10;;;;;;;1.65;0.70;;;3.10;99.90;;;;;;4966832;28;20026;-76
2023/03/11 01:30:39;;;;;;;2.80;0.65;;;3.10;99.90;;;;;;4981540;28;20055;-76
2023/03/11 01:33:07;;;;;;;0.90;0.60;;;3.10;99.90;;;;;;4966920;28;20023;-76
2023/03/11 01:35:32;;;;;;;0.95;0.50;;;3.10;99.90;;;;;;4964798;28;20061;-76
2023/03/11 01:37:58;;;;;;;1.40;0.88;;;3.10;99.90;;;;;;4967076;28;20518;-75
2023/03/11 01:40:46;;;;;;;1.45;1.00;;;3.10;99.90;;;;;;4966895;28;20097;-76
2023/03/11 01:43:46;;;;;;;2.15;0.70;;;3.10;99.90;;;;;;4982926;28;20399;-76
2023/03/11 01:46:19;;;;;;;2.25;0.60;;;3.10;99.90;;;;;;4966192;28;20033;-76
2023/03/11 01:48:50;;;;;;;1.88;0.73;;;3.10;99.90;;;;;;4965951;28;20054;-76
2023/03/11 01:51:41;;;;;;;2.25;0.70;;;3.10;99.90;;;;;;4969129;28;20031;-76
2023/03/11 01:54:22;;;;;;;2.50;0.80;;;3.10;99.90;;;;;;4964535;28;20295;-76
2023/03/11 01:56:49;;;;;;;1.85;0.80;;;3.10;99.90;;;;;;4965341;28;20030;-75
2023/03/11 01:59:20;;;;;;;1.15;0.73;;;3.10;99.90;;;;;;4965608;28;20031;-75
2023/03/11 02:02:00;;;;;;;5.95;1.45;;;3.20;99.90;;;;;;4963469;28;20491;-75
2023/03/11 02:04:28;;;;;;;1.42;0.80;;;3.20;99.90;;;;;;4966531;28;20035;-75
2023/03/11 02:06:55;;;;;;;3.22;0.70;;;3.20;99.90;;;;;;4966472;28;20122;-75
2023/03/11 02:09:22;;;;;;;1.20;0.60;;;3.30;99.90;;;;;;4968945;28;20487;-75
2023/03/11 02:11:49;;;;;;;2.10;0.80;;;3.30;99.90;;;;;;4969762;28;20102;-75
2023/03/11 02:14:15;;;;;;;1.33;0.82;;;3.30;99.90;;;;;;4966197;28;20129;-75
2023/03/11 02:16:40;;;;;;;1.75;0.70;;;3.30;99.90;;;;;;4967882;28;20078;-75
2023/03/11 02:19:44;;;;;;;1.65;0.68;;;3.30;99.90;;;;;;4967652;28;20031;-76
2023/03/11 02:22:11;;;;;;;2.10;0.93;;;3.30;99.90;;;;;;4959105;28;20046;-76
2023/03/11 02:24:55;;;;;;;2.72;0.93;;;3.20;99.90;;;;;;4964145;28;20801;-75
2023/03/11 02:27:22;;;;;;;3.05;0.98;;;3.20;99.90;;;;;;4970427;28;20104;-75
2023/03/11 02:29:50;;;;;;;3.35;1.23;;;3.20;99.90;;;;;;4963511;28;20384;-76
2023/03/11 02:32:17;;;;;;;1.85;0.88;;;3.10;99.90;;;;;;4964617;28;20647;-76
2023/03/11 02:34:43;;;;;;;2.67;1.00;;;3.10;99.90;;;;;;4964697;28;20476;-76
2023/03/11 02:37:11;;;;;;;1.38;0.80;;;3.10;99.90;;;;;;4962560;28;20034;-75
2023/03/11 02:39:43;;;;;;;1.25;0.88;;;3.10;99.90;;;;;;4963979;28;20023;-77
2023/03/11 02:42:23;;;;;;;5.05;0.90;;;3.00;99.90;;;;;;4963652;28;20111;-75
2023/03/11 02:44:57;;;;;;;1.52;0.90;;;3.00;99.90;;;;;;4960401;28;20491;-76
2023/03/11 02:47:24;;;;;;;3.17;1.23;;;3.00;99.90;;;;;;4964449;28;20479;-76
2023/03/11 02:49:50;;;;;;;3.28;0.90;;;2.90;99.90;;;;;;4967607;28;20498;-75
2023/03/11 02:52:16;;;;;;;2.13;0.90;;;2.90;99.90;;;;;;4964822;28;20026;-75
2023/03/11 02:54:41;;;;;;;2.78;1.10;;;2.80;99.90;;;;;;4966030;28;20047;-76
2023/03/11 02:57:07;;;;;;;3.38;0.75;;;2.80;99.90;;;;;;4963961;28;20112;-76
2023/03/11 02:59:33;;;;;;;1.92;0.80;;;2.70;99.90;;;;;;4966824;28;20162;-76
2023/03/11 03:01:59;;;;;;;1.08;0.70;;;2.70;99.90;;;;;;4965498;28;20035;-76
2023/03/11 03:04:24;;;;;;;2.35;0.60;;;2.70;99.90;;;;;;4968208;28;20211;-76
2023/03/11 03:09:21;;;;;;;3.88;1.08;;;2.60;99.90;;;;;;4953590;28;20063;-77
2023/03/11 03:11:47;;;;;;;2.05;0.60;;;2.60;99.90;;;;;;4964958;28;20023;-76
2023/03/11 03:14:12;;;;;;;2.20;0.90;;;2.60;99.90;;;;;;4963323;28;20026;-77
2023/03/11 03:16:38;;;;;;;1.73;0.93;;;2.60;99.90;;;;;;4974062;28;20033;-77
2023/03/11 03:19:04;;;;;;;1.65;0.85;;;2.60;99.90;;;;;;4959371;28;20022;-77
2023/03/11 03:21:30;;;;;;;1.75;0.80;;;2.60;99.90;;;;;;4960195;28;20054;-77
2023/03/11 03:23:56;;;;;;;3.50;0.93;;;2.50;99.90;;;;;;4960754;28;20065;-77
2023/03/11 03:26:22;;;;;;;1.17;0.50;;;2.60;99.90;;;;;;4959644;28;20305;-76
2023/03/11 03:28:47;;;;;;;3.22;1.27;;;2.50;99.90;;;;;;4960894;28;20421;-77
2023/03/11 03:31:13;;;;;;;2.20;0.80;;;2.50;99.90;;;;;;4958226;28;20038;-77
2023/03/11 03:33:38;;;;;;;2.05;0.90;;;2.50;99.90;;;;;;4960833;28;20031;-77
2023/03/11 03:36:10;;;;;;;2.33;0.80;;;2.50;99.90;;;;;;4955847;28;20022;-77
2023/03/11 03:38:35;;;;;;;5.10;0.82;;;2.40;99.90;;;;;;4957706;28;20134;-77
2023/03/11 03:41:01;;;;;;;1.77;0.80;;;2.40;99.90;;;;;;4960284;28;20110;-76
2023/03/11 03:43:26;;;;;;;1.50;0.68;;;2.40;99.90;;;;;;4964314;28;20053;-76
2023/03/11 03:45:57;;;;;;;1.83;0.82;;;2.40;99.90;;;;;;4960052;28;20539;-76
2023/03/11 03:48:22;;;;;;;1.50;0.77;;;2.40;99.90;;;;;;4960023;28;20070;-77
2023/03/11 03:50:48;;;;;;;3.13;0.80;;;2.30;99.90;;;;;;4957254;28;20062;-77
2023/03/11 03:53:14;;;;;;;3.97;0.68;;;2.40;99.90;;;;;;4960794;28;20463;-76
2023/03/11 03:55:39;;;;;;;3.05;0.70;;;2.30;99.90;;;;;;4959637;28;20050;-76
2023/03/11 03:58:05;;;;;;;2.20;0.60;;;2.30;99.90;;;;;;4955108;28;20022;-77
2023/03/11 04:00:31;;;;;;;3.47;0.70;;;2.20;99.90;;;;;;4953548;28;20059;-79
2023/03/11 04:02:56;;;;;;;1.05;0.80;;;2.20;99.90;;;;;;4956662;28;20037;-78
2023/03/11 04:05:25;;;;;;;2.70;0.90;;;2.10;99.90;;;;;;4961087;28;20086;-78
2023/03/11 04:07:51;;;;;;;1.52;0.60;;;2.10;99.90;;;;;;4957438;28;20023;-79
2023/03/11 04:10:17;;;;;;;1.02;0.55;;;2.00;99.90;;;;;;4956915;28;20081;-79
2023/03/11 04:12:42;;;;;;;1.88;0.65;;;1.90;99.90;;;;;;4956170;28;20145;-79
2023/03/11 04:15:09;;;;;;;3.35;0.75;;;1.90;99.90;;;;;;4960304;28;20167;-78
2023/03/11 04:17:35;;;;;;;2.33;0.60;;;1.80;99.90;;;;;;4959991;28;20027;-79
2023/03/11 04:20:01;;;;;;;2.70;0.70;;;1.80;99.90;;;;;;4957420;28;20479;-79
2023/03/11 04:22:27;;;;;;;1.63;0.60;;;1.70;99.90;;;;;;4960900;28;20042;-80
2023/03/11 04:24:52;;;;;;;1.75;0.60;;;1.70;99.90;;;;;;4958639;28;20019;-78
2023/03/11 04:27:18;;;;;;;2.80;0.90;;;1.70;99.90;;;;;;4946737;28;20054;-78
2023/03/11 04:29:44;;;;;;;4.05;0.80;;;1.70;99.90;;;;;;4958598;28;20071;-78
2023/03/11 04:32:09;;;;;;;6.70;0.82;;;1.70;99.90;;;;;;4957720;28;20027;-79
2023/03/11 04:34:35;;;;;;;2.13;0.65;;;1.60;99.90;;;;;;4954532;28;20030;-78
2023/03/11 04:37:00;;;;;;;2.60;0.68;;;1.60;99.90;;;;;;4958072;28;20027;-78
2023/03/11 04:39:26;;;;;;;1.83;0.57;;;1.60;99.90;;;;;;4960087;28;20125;-78
2023/03/11 04:41:51;;;;;;;3.42;1.55;;;1.60;99.90;;;;;;4953925;28;20123;-77
2023/03/11 04:44:17;;;;;;;2.97;0.63;;;1.60;99.90;;;;;;4950736;28;20392;-76
2023/03/11 04:46:43;;;;;;;2.58;0.50;;;1.50;99.90;;;;;;4957657;28;20039;-77
2023/03/11 04:49:09;;;;;;;4.78;0.60;;;1.50;99.90;;;;;;4952047;28;20024;-78
2023/03/11 04:51:34;;;;;;;0.82;0.47;;;1.50;99.90;;;;;;4960758;28;20023;-77
2023/03/11 04:54:00;;;;;;;2.35;0.60;;;1.40;99.90;;;;;;4960151;28;20027;-77
2023/03/11 04:56:26;;;;;;;3.00;0.70;;;1.40;99.90;;;;;;4956465;28;20027;-78
2023/03/11 04:58:51;;;;;;;1.27;0.68;;;1.40;99.90;;;;;;4972331;28;20041;-77
2023/03/11 05:01:17;;;;;;;3.50;0.70;;;1.30;99.90;;;;;;4955779;28;20027;-77
2023/03/11 05:03:42;;;;;;;2.92;0.75;;;1.30;99.90;;;;;;4959471;28;20030;-77
2023/03/11 05:06:08;;;;;;;1.25;0.50;;;1.30;99.90;;;;;;4966020;28;20097;-77
2023/03/11 05:08:34;;;;;;;2.47;0.65;;;1.30;99.90;;;;;;4962043;28;20432;-77
2023/03/11 05:10:59;;;;;;;2.28;0.50;;;1.30;99.90;;;;;;4963756;28;20039;-78
2023/03/11 05:13:25;;;;;;;2.58;0.85;;;1.20;99.90;;;;;;4960319;28;20027;-76
2023/03/11 05:15:51;;;;;;;0.98;0.50;;;1.20;99.90;;;;;;4958613;28;20027;-77
2023/03/11 05:18:16;;;;;;;2.22;0.60;;;1.20;99.90;;;;;;4959649;28;20038;-76
2023/03/11 05:20:42;;;;;;;4.50;1.30;;;1.20;99.90;;;;;;4958586;28;20668;-77
2023/03/11 05:23:08;;;;;;;2.25;0.82;;;1.20;99.90;;;;;;4964062;28;20035;-77
2023/03/11 05:25:34;;;;;;;1.38;0.60;;;1.20;99.90;;;;;;4958817;28;20045;-77
2023/03/11 05:28:00;;;;;;;1.80;0.80;;;1.20;99.90;;;;;;4961967;28;20022;-78
2023/03/11 05:30:25;;;;;;;1.70;0.80;;;1.20;99.90;;;;;;4957679;28;20027;-77
2023/03/11 05:32:51;;;;;;;2.15;0.73;;;1.10;99.90;;;;;;4961357;28;20032;-77
2023/03/11 05:35:17;;;;;;;2.13;0.80;;;1.10;99.90;;;;;;4959914;28;20023;-78
2023/03/11 05:37:43;;;;;;;4.10;0.95;;;1.20;99.90;;;;;;4956432;28;20034;-78
2023/03/11 05:40:11;;;;;;;3.72;0.90;;;1.20;99.90;;;;;;4956595;28;20432;-79
2023/03/11 05:42:39;;;;;;;3.33;0.82;;;1.20;99.90;;;;;;4961284;28;20038;-76
2023/03/11 05:45:04;;;;;;;2.60;0.85;;;1.20;99.90;;;;;;4959984;28;20081;-77
2023/03/11 05:47:30;;;;;;;2.28;0.80;;;1.20;99.90;;;;;;4958279;28;20030;-77
2023/03/11 05:49:56;;;;;;;1.33;0.60;;;1.20;99.90;;;;;;4959198;28;20030;-77
2023/03/11 05:52:21;;;;;;;1.52;0.73;;;1.20;99.90;;;;;;4957344;28;21054;-76
2023/03/11 05:54:51;;;;;;;3.60;0.80;;;1.20;99.90;;;;;;4963476;28;20031;-79
2023/03/11 05:57:18;;;;;;;3.28;1.00;;;1.20;99.90;;;;;;4957974;28;20038;-80
2023/03/11 05:59:44;;;;;;;3.47;0.80;;;1.20;99.90;;;;;;4955222;28;20086;-76
2023/03/11 06:02:10;;;;;;;1.13;0.68;;;1.20;99.90;;;;;;4957689;28;20027;-76
2023/03/11 06:04:36;;;;;;;1.95;0.77;;;1.20;99.90;;;;;;4958844;28;20058;-76
2023/03/11 06:07:01;;;;;;;2.78;1.10;;;1.20;99.90;;;;;;4966250;28;20046;-75
2023/03/11 06:09:27;;;;;;;2.30;0.80;;;1.20;99.90;;;;;;4958804;28;20030;-75
2023/03/11 06:11:53;;;;;;;3.25;0.90;;;1.20;99.90;;;;;;4958579;28;20019;-76
2023/03/11 06:14:18;;;;;;;5.25;0.90;;;1.20;99.90;;;;;;4957663;28;20019;-74
2023/03/11 06:16:44;;;;;;;2.10;1.10;;;1.20;99.90;;;;;;4961261;28;20115;-77
2023/03/11 06:19:11;;;;;;;3.30;1.00;;;1.20;99.90;;;;;;4978631;28;20534;-74
2023/03/11 06:21:37;;;;;;;1.75;0.77;;;1.20;99.90;;;;;;4968551;28;20073;-76
2023/03/11 06:24:02;;;;;;;3.70;1.30;;;1.20;99.90;;;;;;4955150;28;20102;-75
2023/03/11 06:26:28;;;;;;;4.88;0.90;;;1.30;99.90;;;;;;4962972;28;20086;-75
2023/03/11 06:28:54;;;;;;;1.73;0.93;;;1.30;99.90;;;;;;4953691;28;20027;-78
2023/03/11 06:31:26;;;;;;;5.82;1.33;;;1.40;99.90;;;;;;4955686;28;20539;-77
2023/03/11 06:33:54;;;;;;;8.27;1.50;;;1.40;99.90;;;;;;4960252;28;20031;-76
2023/03/11 06:36:21;;;;;;;6.30;1.50;;;1.40;99.90;;;;;;4961495;28;20101;-78
2023/03/11 06:38:48;;;;;;;3.97;1.48;;;1.40;99.90;;;;;;4956571;28;20133;-76
2023/03/11 06:41:13;;;;;;;4.80;1.30;;;1.50;99.90;;;;;;4962112;28;20058;-77
2023/03/11 06:43:39;;;;;;;3.85;1.15;;;1.50;99.90;;;;;;4959726;28;20136;-76
2023/03/11 06:46:14;;;;;;;2.28;1.05;;;1.50;99.90;;;;;;4960312;28;20063;-76
2023/03/11 06:48:40;;;;;;;1.70;0.98;;;1.60;99.90;;;;;;4955457;28;20182;-75
2023/03/11 06:51:06;;;;;;;2.05;0.90;;;1.60;99.90;;;;;;4961097;28;20547;-77
2023/03/11 06:53:31;;;;;;;5.10;1.10;;;1.70;99.90;;;;;;4961677;28;20035;-77
2023/03/11 06:56:08;;;;;;;4.82;1.40;;;1.70;99.90;;;;;;4965092;28;20166;-77
2023/03/11 06:58:36;;;;;;;5.72;2.95;;;1.80;99.90;;;;;;4957446;28;20042;-77
2023/03/11 07:01:10;;;;;;;3.63;0.98;;;1.90;99.90;;;;;;4956158;28;20042;-77
2023/03/11 07:03:36;;;;;;;4.88;1.02;;;2.00;99.90;;;;;;4962305;28;20644;-76
2023/03/11 07:06:03;;;;;;;1.98;0.75;;;2.10;99.90;;;;;;4958841;28;20538;-78
2023/03/11 07:08:30;;;;;;;2.83;1.35;;;2.30;99.90;;;;;;4963281;28;20035;-78
2023/03/11 07:11:06;;;;;;;3.47;1.05;;;2.40;99.90;;;;;;4950487;28;20125;-77
2023/03/11 07:13:33;;;;;;;4.40;0.85;;;2.40;99.90;;;;;;4959375;28;20026;-77
2023/03/11 07:16:20;;;;;;;3.40;0.90;;;2.50;99.90;;;;;;4958414;28;20615;-77
2023/03/11 07:18:47;;;;;;;6.22;1.30;;;2.50;99.90;;;;;;4960061;28;20030;-76
2023/03/11 07:21:15;;;;;;;4.97;1.80;;;2.60;99.90;;;;;;4960591;28;20031;-77
2023/03/11 07:23:42;;;;;;;5.70;1.20;;;2.60;99.90;;;;;;4959344;28;20023;-77
2023/03/11 07:26:09;;;;;;;3.38;0.90;;;2.60;99.90;;;;;;4959290;28;20368;-78
2023/03/11 07:28:36;;;;;;;4.80;1.10;;;2.70;99.90;;;;;;4957866;28;20042;-78
2023/03/11 07:31:14;;;;;;;4.05;1.02;;;2.70;99.90;;;;;;4958406;28;20146;-77
2023/03/11 07:33:40;;;;;;;3.83;1.30;;;2.70;99.90;;;;;;4957159;28;20015;-77
2023/03/11 07:36:12;;;;;;;5.13;1.00;;;2.60;99.90;;;;;;4953831;28;24256;-78
2023/03/11 07:38:38;;;;;;;4.57;0.90;;;2.40;99.90;;;;;;4956271;28;20126;-78
2023/03/11 07:41:04;;;;;;;3.80;0.95;;;2.40;99.90;;;;;;4963850;28;20114;-78
2023/03/11 07:43:31;;;;;;;2.92;1.05;;;2.40;99.90;;;;;;4960607;28;20082;-77
2023/03/11 07:46:06;;;;;;;3.08;1.15;;;2.40;99.90;;;;;;4959083;28;20081;-77
2023/03/11 07:48:33;;;;;;;1.88;1.00;;;2.30;99.90;;;;;;4957273;28;20117;-77
2023/03/11 07:51:08;;;;;;;4.95;0.57;;;2.30;99.90;;;;;;4962759;28;20506;-78
2023/03/11 07:53:34;;;;;;;4.32;0.82;;;2.30;99.90;;;;;;4964050;28;20031;-77
2023/03/11 07:56:00;;;;;;;4.47;0.80;;;2.40;99.90;;;;;;4965663;28;20019;-78
2023/03/11 07:58:26;;;;;;;3.50;0.80;;;2.40;99.90;;;;;;4967582;28;20442;-78
2023/03/11 08:00:53;;;;;;;7.97;1.35;;;2.40;99.90;;;;;;4969729;28;20046;-78
2023/03/11 08:03:19;;;;;;;4.20;1.05;;;2.40;99.90;;;;;;4966836;28;20023;-77
2023/03/11 08:05:44;;;;;;;2.83;0.90;;;2.40;99.90;;;;;;4962207;28;20378;-77
2023/03/11 08:08:10;;;;;;;2.65;0.80;;;2.30;99.90;;;;;;4979833;28;20131;-76
2023/03/11 08:10:36;;;;;;;5.25;1.00;;;2.30;99.90;;;;;;4965537;28;20492;-78
2023/03/11 08:13:02;;;;;;;3.83;0.90;;;2.40;99.90;;;;;;4969034;28;20474;-77
2023/03/11 08:15:27;;;;;;;3.72;1.02;;;2.40;99.90;;;;;;4967909;28;20114;-77
2023/03/11 08:17:53;;;;;;;4.32;1.00;;;2.40;99.90;;;;;;4964884;28;20027;-77
2023/03/11 08:20:19;;;;;;;4.45;1.17;;;2.40;99.90;;;;;;4962115;28;20073;-78
2023/03/11 08:22:45;;;;;;;5.68;2.78;;;2.50;99.90;;;;;;4955511;28;20058;-77
2023/03/11 08:25:10;;;;;;;5.00;2.20;;;2.50;99.90;;;;;;4954299;28;20075;-77
2023/03/11 08:27:37;;;;;;;2.97;0.75;;;2.60;99.90;;;;;;4962065;28;20043;-77
2023/03/11 08:30:04;;;;;;;4.05;1.17;;;2.60;99.90;;;;;;4956627;28;20031;-78
2023/03/11 08:32:30;;;;;;;2.42;0.60;;;2.60;99.90;;;;;;4960959;28;20066;-78
2023/03/11 08:34:56;;;;;;;4.07;0.77;;;2.60;99.90;;;;;;4965008;28;20027;-78
2023/03/11 08:37:22;;;;;;;3.28;1.25;;;2.50;99.90;;;;;;4959330;28;20035;-79
2023/03/11 08:39:48;;;;;;;1.90;0.88;;;2.50;99.90;;;;;;4962806;28;20097;-77
2023/03/11 08:42:14;;;;;;;2.95;0.93;;;2.50;99.90;;;;;;4968839;28;20030;-78
2023/03/11 08:44:39;;;;;;;6.03;1.15;;;2.50;99.90;;;;;;4959840;28;20043;-77
2023/03/11 08:47:05;;;;;;;4.78;0.95;;;2.70;99.90;;;;;;4963578;28;20027;-78
2023/03/11 08:49:31;;;;;;;6.50;1.50;;;2.90;99.90;;;;;;4964601;28;20427;-78
2023/03/11 08:51:56;;;;;;;4.35;1.48;;;3.00;99.90;;;;;;4967649;28;20114;-79
2023/03/11 08:54:22;;;;;;;5.43;1.10;;;3.10;99.90;;;;;;4964012;28;20043;-78
2023/03/11 08:56:48;;;;;;;7.47;1.20;;;3.10;99.90;;;;;;4961298;28;20038;-78
2023/03/11 08:59:13;;;;;;;14.93;1.90;;;3.00;99.90;;;;;;4963745;28;20539;-79
2023/03/11 09:01:41;;;;;;;6.47;0.70;;;3.10;99.90;;;;;;4961378;28;20038;-78
2023/03/11 09:04:07;;;;;;;3.63;0.90;;;3.20;99.90;;;;;;4962228;28;20395;-80
2023/03/11 09:06:32;;;;;;;2.17;0.70;;;3.20;99.90;;;;;;4959725;28;20165;-78
2023/03/11 09:08:59;;;;;;;2.88;0.80;;;3.20;99.90;;;;;;4977305;23;20547;-75
2023/03/11 09:11:24;;;;;;;5.72;0.90;;;3.30;99.90;;;;;;4966510;28;20027;-75
2023/03/11 09:13:50;;;;;;;2.50;0.90;;;3.40;99.90;;;;;;4969356;28;20031;-75
2023/03/11 09:16:21;;;;;;;2.90;0.80;;;3.50;99.80;;;;;;4970365;28;20106;-76
2023/03/11 09:18:47;;;;;;;1.95;0.80;;;3.60;99.90;;;;;;4966268;28;20525;-76
2023/03/11 09:21:13;;;;;;;3.22;0.75;;;3.70;99.90;;;;;;4967127;28;20222;-76
2023/03/11 09:23:40;;;;;;;5.18;0.88;;;3.90;99.90;;;;;;4961031;28;20039;-75
2023/03/11 09:26:05;;;;;;;4.82;1.38;;;3.90;99.70;;;;;;4965184;28;20479;-75
2023/03/11 09:28:31;;;;;;;3.92;1.27;;;4.00;99.90;;;;;;4961799;28;20041;-75
2023/03/11 09:30:57;;;;;;;1.92;0.73;;;4.20;99.60;;;;;;4964612;28;20035;-76
2023/03/11 09:33:23;;;;;;;4.80;0.73;;;4.40;99.90;;;;;;4966485;28;20034;-76
2023/03/11 09:35:49;;;;;;;4.93;1.02;;;4.60;99.40;;;;;;4966238;28;20629;-75
2023/03/11 09:38:14;;;;;;;4.90;0.98;;;4.80;99.20;;;;;;4960930;28;20034;-75
2023/03/11 09:41:09;;;;;;;4.97;1.10;;;4.80;99.10;;;;;;4962815;28;20399;-76
2023/03/11 09:43:40;;;;;;;3.55;1.10;;;4.90;98.90;;;;;;4986763;28;20070;-76
2023/03/11 09:46:28;;;;;;;4.35;1.02;;;4.90;98.60;;;;;;4965735;28;20122;-75
2023/03/11 09:49:24;;;;;;;2.33;0.95;;;4.80;97.90;;;;;;4976000;28;20031;-76
2023/03/11 09:52:08;;;;;;;4.47;0.75;;;4.70;97.50;;;;;;4964870;28;20499;-76
2023/03/11 09:54:39;;;;;;;2.50;0.90;;;4.70;98.00;;;;;;4962790;28;20112;-76
2023/03/11 09:57:08;;;;;;;3.28;0.73;;;4.70;98.20;;;;;;4963013;28;20027;-75
2023/03/11 09:59:36;;;;;;;2.20;1.02;;;4.60;98.10;;;;;;4962361;28;20031;-76
2023/03/11 10:02:03;;;;;;;2.08;0.63;;;4.50;97.50;;;;;;4962262;28;20058;-76
2023/03/11 10:04:44;;;;;;;3.33;0.88;;;4.40;96.60;;;;;;4963181;28;20059;-75
2023/03/11 10:07:20;;;;;;;3.25;0.63;;;4.30;96.40;;;;;;4958195;28;20071;-76
2023/03/11 10:09:57;;;;;;;5.13;1.25;;;4.30;96.40;;;;;;4965538;28;20113;-76
2023/03/11 10:12:48;;;;;;;3.80;0.65;;;4.20;96.50;;;;;;4954794;28;20696;-76
2023/03/11 10:15:52;;;;;;;4.55;0.95;;;4.30;96.50;;;;;;4963764;28;20019;-76
2023/03/11 10:18:43;;;;;;;1.30;0.88;;;4.30;96.80;;;;;;4921941;29;20064;-75
2023/03/11 10:21:45;;;;;;;2.15;0.80;;;4.40;96.50;;;;;;4961590;28;20045;-76
2023/03/11 10:24:29;;;;;;;1.88;0.90;;;4.40;95.20;;;;;;4962251;28;20031;-76
2023/03/11 10:26:57;;;;;;;;;;;4.60;97.20;;;;;;4964271;28;20031;-76
2023/03/11 10:29:33;;;;;;;4.13;0.98;;;4.70;96.50;;;;;;4957635;28;19918;-76
2023/03/11 10:32:10;;;;;;;0.90;0.50;;;4.70;96.50;;;;;;4963346;28;20038;-76
2023/03/11 10:35:01;;;;;;;1.88;0.57;;;4.70;96.20;;;;;;4961566;28;20023;-75
2023/03/11 10:37:36;;;;;;;1.75;0.80;;;4.70;95.00;;;;;;4962042;28;20027;-75
2023/03/11 10:40:14;;;;;;;1.98;0.90;;;4.80;95.10;;;;;;4964841;28;20392;-75
2023/03/11 10:42:44;;;;;;;4.07;1.35;;;4.90;94.90;;;;;;4961433;28;20029;-75
2023/03/11 10:45:13;;;;;;;3.13;0.90;;;5.10;94.70;;;;;;4966030;28;20501;-76
2023/03/11 10:47:38;;;;;;;3.17;0.75;;;5.20;94.80;;;;;;4964094;28;20082;-76
2023/03/11 10:50:13;;;;;;;4.40;0.80;;;5.30;94.70;;;;;;4956613;28;20113;-76
2023/03/11 10:53:02;;;;;;;3.08;0.80;;;5.50;94.40;;;;;;4959373;28;20030;-75
2023/03/11 10:55:28;;;;;;;1.40;0.52;;;5.40;93.00;;;;;;4963383;28;20038;-76
2023/03/11 10:58:09;;;;;;;6.13;0.65;;;5.40;92.50;;;;;;4962215;28;20419;-76
2023/03/11 11:00:35;;;;;;;2.22;0.32;;;5.40;91.80;;;;;;4963006;28;20022;-76
2023/03/11 11:03:03;;;;;;;3.08;0.80;;;5.50;90.90;;;;;;4962801;28;20368;-76
2023/03/11 11:05:35;;;;;;;6.47;1.20;;;5.50;90.80;;;;;;4959074;28;20035;-75
2023/03/11 11:08:04;;;;;;;4.38;0.73;;;5.60;90.40;;;;;;4958759;28;20023;-75
2023/03/11 11:10:33;;;;;;;4.95;0.55;;;5.60;89.90;;;;;;4962831;28;20019;-74
2023/03/11 11:12:59;;;;;;;4.45;0.90;;;5.50;90.00;;;;;;4961972;28;20101;-75
2023/03/11 11:15:30;;;;;;;2.55;1.05;;;5.60;90.90;;;;;;4967994;28;20038;-74
2023/03/11 11:18:01;;;;;;;1.80;0.52;;;5.70;91.40;;;;;;4961076;28;20035;-76
2023/03/11 11:20:28;;;;;;;1.58;0.90;;;5.70;90.50;;;;;;4958864;28;20058;-75
2023/03/11 11:22:56;;;;;;;4.75;0.90;;;5.80;90.30;;;;;;4961957;28;20031;-76
2023/03/11 11:25:27;;;;;;;3.63;0.80;;;5.90;90.40;;;;;;4965367;28;20944;-75
2023/03/11 11:28:02;;;;;;;5.05;1.02;;;5.80;90.70;;;;;;4963341;28;20058;-76
2023/03/11 11:30:29;;;;;;;3.00;0.95;;;5.80;90.70;;;;;;4960907;28;20106;-76
2023/03/11 11:32:55;;;;;;;3.10;1.38;;;5.80;90.80;;;;;;4961915;28;20030;-76
2023/03/11 11:35:23;;;;;;;2.63;0.88;;;5.90;90.40;;;;;;4960434;28;20038;-75
2023/03/11 11:38:00;;;;;;;2.20;1.10;;;6.00;91.00;;;;;;4962621;28;20177;-75
2023/03/11 11:40:29;;;;;;;1.17;0.70;;;6.00;89.50;;;;;;4965140;28;20680;-75
2023/03/11 11:42:57;;;;;;;2.67;0.88;;;6.10;87.90;;;;;;4962678;28;20039;-76
2023/03/11 11:45:41;;;;;;;2.47;0.73;;;6.10;87.30;;;;;;4956065;28;20586;-76
2023/03/11 11:48:12;;;;;;;3.47;0.73;;;6.10;85.20;;;;;;4961864;28;20037;-76
2023/03/11 11:50:47;;;;;;;4.95;1.08;;;6.10;85.00;;;;;;4963670;28;20054;-76
2023/03/11 11:53:31;;;;;;;5.05;1.02;;;6.10;85.10;;;;;;4961314;28;20034;-76
2023/03/11 11:55:57;;;;;;;2.70;1.00;;;6.00;82.90;;;;;;4962142;28;20086;-75
2023/03/11 11:58:23;;;;;;;4.00;0.80;;;5.90;83.90;;;;;;4952160;28;20436;-76
2023/03/11 12:01:14;;;;;;;2.97;0.70;;;5.90;86.20;;;;;;4965097;28;20030;-76
2023/03/11 12:04:03;;;;;;;2.63;0.80;;;5.90;84.30;;;;;;4956168;28;20107;-75
2023/03/11 12:06:34;;;;;;;2.63;1.00;;;5.90;84.50;;;;;;4962695;28;20027;-76
2023/03/11 12:09:13;;;;;;;5.55;1.30;;;5.90;84.20;;;;;;4961115;28;20023;-76
2023/03/11 12:12:15;;;;;;;1.98;0.95;;;5.90;83.10;;;;;;4963358;28;20023;-75
2023/03/11 12:14:53;;;;;;;3.85;1.02;;;5.80;82.30;;;;;;4959220;28;20098;-76
2023/03/11 12:17:20;;;;;;;2.53;1.10;;;5.80;85.00;;;;;;4958647;28;20051;-76
2023/03/11 12:20:14;;;;;;;3.03;0.80;;;5.80;83.20;;;;;;4960053;28;20405;-76
2023/03/11 12:23:02;;;;;;;3.97;1.10;;;5.70;84.00;;;;;;4962259;28;20510;-76
2023/03/11 12:26:24;;;;;;;2.78;0.82;;;5.70;85.00;;;;;;4954407;28;20046;-76
2023/03/11 12:29:01;;;;;;;3.38;0.90;;;5.70;85.20;;;;;;4945815;28;20027;-76
2023/03/11 12:31:30;;;;;;;5.15;1.08;;;5.80;83.90;;;;;;4958507;28;20045;-76
2023/03/11 12:34:01;;;;;;;3.63;1.10;;;5.70;82.10;;;;;;4959519;28;20387;-76
2023/03/11 12:36:32;;;;;;;2.63;1.20;;;5.60;82.10;;;;;;4960703;28;20031;-76
2023/03/11 12:38:59;;;;;;;2.13;0.82;;;5.60;81.30;;;;;;4962275;28;20113;-76
2023/03/11 12:41:28;;;;;;;3.58;0.82;;;5.60;82.50;;;;;;4959004;28;20035;-77
2023/03/11 12:44:00;;;;;;;1.92;0.90;;;5.50;82.20;;;;;;4961370;28;20479;-77
2023/03/11 12:46:58;;;;;;;5.05;1.60;;;5.40;80.90;;;;;;4957120;28;20038;-76
2023/03/11 12:49:30;;;;;;;3.80;1.15;;;5.40;82.70;;;;;;4961103;28;20260;-76
2023/03/11 12:52:04;;;;;;;5.97;2.65;;;5.40;83.00;;;;;;4967108;28;20019;-76
2023/03/11 12:54:33;;;;;;;4.75;1.88;;;5.50;84.20;;;;;;4960425;28;20042;-76
2023/03/11 12:57:17;;;;;;;4.35;1.30;;;5.40;84.90;;;;;;4962351;28;20524;-76
2023/03/11 12:59:48;;;;;;;3.00;0.70;;;5.50;85.00;;;;;;4954236;28;20487;-76
2023/03/11 13:02:40;;;;;;;2.67;0.80;;;5.50;83.80;;;;;;4961199;28;20887;-76
2023/03/11 13:05:26;;;;;;;4.72;1.65;;;5.30;82.90;;;;;;4960131;28;20043;-75
2023/03/11 13:08:13;;;;;;;2.88;1.00;;;5.20;83.10;;;;;;4962648;28;20026;-75
2023/03/11 13:10:53;;;;;;;3.28;1.15;;;5.30;83.30;;;;;;4963255;28;20039;-76
2023/03/11 13:13:41;;;;;;;3.17;0.65;;;5.30;83.80;;;;;;4959462;28;20045;-77